Time;durP1;ratioP1;P1;durP2;ratioP2;P2;SDS_P1;SDS_P2;PMS_P1;PMS_P2;Temp;Humidity;BMP_temperature;BMP_pressure;BME280_temperature;BME280_humidity;BME280_pressure;Samples;Min_cycle;Max_cycle;Signal;HPM_P1;HPM_P2
2024/02/11 00:02:00;;;;;;;347.60;103.60;;;;;12.20;94420.00;;;;5091753;28;20269;-72
2024/02/11 00:04:49;;;;;;;346.20;102.90;;;;;12.20;94403.00;;;;5082930;28;20199;-70
2024/02/11 00:07:39;;;;;;;350.80;106.13;;;;;12.20;94408.00;;;;5081134;28;20215;-69
2024/02/11 00:10:28;;;;;;;347.03;101.40;;;;;12.30;94398.00;;;;5083106;28;20204;-71
2024/02/11 00:13:19;;;;;;;355.73;108.10;;;;;12.30;94394.00;;;;5080466;28;20199;-69
2024/02/11 00:16:09;;;;;;;357.63;111.33;;;;;12.20;94399.00;;;;5084123;28;20215;-69
2024/02/11 00:18:59;;;;;;;352.37;104.97;;;;;11.90;94395.00;;;;5084214;28;20210;-71
2024/02/11 00:21:48;;;;;;;341.47;97.83;;;;;12.10;94391.00;;;;5090736;28;20238;-69
2024/02/11 00:24:37;;;;;;;345.97;105.70;;;;;12.30;94393.00;;;;5086566;28;20206;-71
2024/02/11 00:27:26;;;;;;;344.53;104.00;;;;;12.30;94409.00;;;;5090528;28;20222;-69
2024/02/11 00:30:17;;;;;;;354.43;109.87;;;;;12.20;94409.00;;;;5090136;28;20218;-71
2024/02/11 00:33:06;;;;;;;349.30;105.87;;;;;12.20;94405.00;;;;5088418;28;20230;-69
2024/02/11 00:36:00;;;;;;;342.00;97.43;;;;;12.20;94399.00;;;;5088241;28;20217;-71
2024/02/11 00:38:53;;;;;;;351.80;107.00;;;;;12.10;94404.00;;;;5085934;28;20199;-70
2024/02/11 00:41:42;;;;;;;344.67;104.50;;;;;12.10;94405.00;;;;5095201;28;20640;-70
2024/02/11 00:44:31;;;;;;;186.27;98.93;;;;;12.20;94408.00;;;;5090723;28;20207;-70
2024/02/11 00:47:22;;;;;;;337.03;100.87;;;;;12.10;94404.00;;;;5088102;28;20688;-70
2024/02/11 00:50:14;;;;;;;344.97;100.53;;;;;12.20;94403.00;;;;5085057;28;20207;-69
2024/02/11 00:53:04;;;;;;;346.00;103.63;;;;;12.00;94406.00;;;;5084662;28;20734;-69
2024/02/11 00:55:53;;;;;;;344.80;100.93;;;;;12.10;94404.00;;;;5088717;28;20211;-71
2024/02/11 00:58:43;;;;;;;346.77;101.47;;;;;12.20;94404.00;;;;5090112;28;21492;-73
2024/02/11 01:01:32;;;;;;;343.73;102.93;;;;;12.00;94414.00;;;;5091487;28;20235;-73
2024/02/11 01:04:22;;;;;;;340.17;99.77;;;;;12.10;94410.00;;;;5086079;28;20207;-72
2024/02/11 01:07:12;;;;;;;347.97;107.27;;;;;12.10;94414.00;;;;5081840;28;20223;-73
2024/02/11 01:10:01;;;;;;;341.70;99.77;;;;;12.10;94427.00;;;;5084362;28;20261;-72
2024/02/11 01:12:51;;;;;;;341.93;97.80;;;;;12.20;94421.00;;;;5084490;28;20227;-72
2024/02/11 01:15:40;;;;;;;366.30;113.73;;;;;12.20;94413.00;;;;5087372;28;20767;-71
2024/02/11 01:18:29;;;;;;;313.43;105.90;;;;;12.30;94420.00;;;;5087601;28;20581;-72
2024/02/11 01:21:20;;;;;;;343.53;108.40;;;;;12.20;94418.00;;;;5090470;28;20219;-73
2024/02/11 01:24:09;;;;;;;354.07;106.30;;;;;12.00;94410.00;;;;5081488;28;20218;-72
2024/02/11 01:26:59;;;;;;;345.30;97.83;;;;;11.90;94412.00;;;;5090253;28;20199;-73
2024/02/11 01:29:48;;;;;;;350.97;102.53;;;;;12.10;94411.00;;;;5084820;28;20211;-73
2024/02/11 01:32:37;;;;;;;352.77;103.20;;;;;12.10;94411.00;;;;5083541;28;20230;-72
2024/02/11 01:35:28;;;;;;;345.77;101.60;;;;;12.20;94410.00;;;;5080173;28;20215;-73
2024/02/11 01:38:18;;;;;;;360.07;110.63;;;;;12.20;94409.00;;;;5082963;28;20249;-73
2024/02/11 01:41:08;;;;;;;351.97;106.20;;;;;12.20;94413.00;;;;5085609;28;21029;-72
2024/02/11 01:43:58;;;;;;;343.03;103.13;;;;;12.20;94409.00;;;;5088330;28;20199;-73
2024/02/11 01:46:48;;;;;;;347.00;99.40;;;;;12.20;94411.00;;;;5088431;28;20694;-73
2024/02/11 01:49:38;;;;;;;344.17;99.57;;;;;12.00;94400.00;;;;5087273;28;20249;-72
2024/02/11 01:52:28;;;;;;;177.20;100.03;;;;;12.20;94407.00;;;;5089037;28;20705;-72
2024/02/11 01:55:22;;;;;;;147.93;96.77;;;;;12.20;94405.00;;;;5086683;28;20214;-73
2024/02/11 01:58:11;;;;;;;144.73;99.10;;;;;12.20;94412.00;;;;5086052;28;20210;-73
2024/02/11 02:01:00;;;;;;;113.13;88.83;;;;;12.20;94396.00;;;;5084555;28;20223;-72
2024/02/11 02:03:50;;;;;;;117.67;92.10;;;;;12.20;94391.00;;;;5077658;28;20672;-72
2024/02/11 02:06:39;;;;;;;109.83;90.07;;;;;12.10;94390.00;;;;5070233;28;20192;-72
2024/02/11 02:09:30;;;;;;;92.03;81.90;;;;;12.20;94386.00;;;;5071708;28;20219;-73
2024/02/11 02:12:21;;;;;;;96.47;83.90;;;;;12.20;94360.00;;;;5080208;28;20585;-72
2024/02/11 02:15:10;;;;;;;108.87;88.43;;;;;12.20;94369.00;;;;5078686;28;20587;-72
2024/02/11 02:18:00;;;;;;;124.60;91.23;;;;;12.00;94366.00;;;;5072435;28;20199;-72
2024/02/11 02:20:49;;;;;;;124.40;90.23;;;;;12.10;94365.00;;;;5077687;28;20230;-72
2024/02/11 02:23:40;;;;;;;141.83;98.23;;;;;12.20;94356.00;;;;5076589;28;20203;-71
2024/02/11 02:26:29;;;;;;;137.40;93.33;;;;;12.20;94347.00;;;;5079250;28;20287;-72
2024/02/11 02:29:18;;;;;;;147.13;99.43;;;;;12.10;94346.00;;;;5075812;28;20710;-71
2024/02/11 02:32:07;;;;;;;141.47;95.70;;;;;12.20;94343.00;;;;5081982;28;20219;-72
2024/02/11 02:34:56;;;;;;;121.53;91.20;;;;;11.90;94334.00;;;;5078985;28;20828;-72
2024/02/11 02:37:46;;;;;;;111.37;84.63;;;;;12.00;94325.00;;;;5077573;28;20686;-73
2024/02/11 02:40:36;;;;;;;118.83;90.23;;;;;12.00;94331.00;;;;5069692;28;20242;-73
2024/02/11 02:43:26;;;;;;;126.57;93.13;;;;;12.10;94338.00;;;;5080799;28;20576;-72
2024/02/11 02:46:15;;;;;;;118.23;89.50;;;;;12.10;94325.00;;;;5079275;28;20210;-72
2024/02/11 02:49:04;;;;;;;118.53;90.60;;;;;12.10;94332.00;;;;5076977;28;20683;-72
2024/02/11 02:51:56;;;;;;;127.47;92.60;;;;;12.10;94330.00;;;;5067191;28;20250;-72
2024/02/11 02:54:46;;;;;;;124.23;91.20;;;;;12.00;94323.00;;;;5082337;28;20215;-72
2024/02/11 02:57:37;;;;;;;140.47;94.20;;;;;12.00;94318.00;;;;5084109;28;20200;-71
2024/02/11 03:00:26;;;;;;;141.30;91.17;;;;;11.60;94317.00;;;;5076273;28;20667;-72
2024/02/11 03:03:15;;;;;;;154.87;100.53;;;;;11.60;94317.00;;;;5081026;28;20707;-72
2024/02/11 03:06:04;;;;;;;134.90;87.50;;;;;11.80;94317.00;;;;5074658;28;20207;-72
2024/02/11 03:08:54;;;;;;;148.07;97.93;;;;;11.90;94322.00;;;;5074508;28;20229;-72
2024/02/11 03:11:43;;;;;;;157.47;97.97;;;;;11.90;94313.00;;;;5081072;28;20223;-72
2024/02/11 03:14:33;;;;;;;151.77;92.83;;;;;11.80;94319.00;;;;5067972;28;20199;-73
2024/02/11 03:17:22;;;;;;;147.93;94.17;;;;;11.70;94316.00;;;;5086890;28;20830;-72
2024/02/11 03:20:14;;;;;;;156.00;94.90;;;;;11.50;94311.00;;;;5065914;28;20210;-72
2024/02/11 03:23:03;;;;;;;144.93;90.87;;;;;11.50;94314.00;;;;5075863;28;20211;-71
2024/02/11 03:25:52;;;;;;;149.87;93.30;;;;;11.60;94314.00;;;;5079015;28;20211;-72
2024/02/11 03:28:42;;;;;;;142.50;93.97;;;;;11.70;94311.00;;;;5068022;28;20216;-72
2024/02/11 03:31:34;;;;;;;129.37;87.10;;;;;11.80;94308.00;;;;5082484;28;20238;-72
2024/02/11 03:34:25;;;;;;;132.27;88.33;;;;;11.80;94313.00;;;;5073443;28;20217;-71
2024/02/11 03:37:15;;;;;;;135.27;93.13;;;;;11.80;94309.00;;;;5072983;28;20235;-71
2024/02/11 03:40:09;;;;;;;99.30;81.53;;;;;11.80;94303.00;;;;5086932;28;20213;-72
2024/02/11 03:42:58;;;;;;;81.67;72.90;;;;;11.60;94306.00;;;;5082860;28;20219;-71
2024/02/11 03:45:47;;;;;;;83.90;74.77;;;;;11.50;94303.00;;;;5078056;28;20573;-71
2024/02/11 03:48:37;;;;;;;80.57;71.90;;;;;11.60;94294.00;;;;5074293;28;20220;-72
2024/02/11 03:51:27;;;;;;;77.00;68.93;;;;;11.60;94302.00;;;;5079597;28;20230;-72
2024/02/11 03:54:17;;;;;;;82.67;73.87;;;;;11.30;94295.00;;;;5075051;28;20956;-71
2024/02/11 03:57:06;;;;;;;73.30;66.00;;;;;11.40;94294.00;;;;5084668;28;20203;-72
2024/02/11 03:59:55;;;;;;;78.43;70.30;;;;;11.20;94280.00;;;;5076371;28;20587;-71
2024/02/11 04:02:44;;;;;;;74.77;67.23;;;;;11.20;94275.00;;;;5079588;28;20235;-72
2024/02/11 04:05:38;;;;;;;80.87;72.53;;;;;11.60;94279.00;;;;5076302;28;20578;-71
2024/02/11 04:08:29;;;;;;;81.27;72.33;;;;;11.70;94280.00;;;;5078777;28;20600;-71
2024/02/11 04:11:19;;;;;;;76.97;69.07;;;;;11.70;94279.00;;;;5077441;28;20643;-72
2024/02/11 04:14:09;;;;;;;86.27;75.77;;;;;11.40;94263.00;;;;5080582;28;20580;-71
2024/02/11 04:16:58;;;;;;;78.57;70.03;;;;;11.10;94264.00;;;;5079735;28;20196;-71
2024/02/11 04:19:48;;;;;;;88.73;76.80;;;;;11.00;94264.00;;;;5074038;28;20203;-71
2024/02/11 04:22:38;;;;;;;77.03;68.83;;;;;11.10;94259.00;;;;5066155;28;20223;-72
2024/02/11 04:25:29;;;;;;;86.17;74.73;;;;;11.20;94265.00;;;;5076697;28;20214;-71
2024/02/11 04:28:20;;;;;;;99.10;80.07;;;;;11.20;94262.00;;;;5073132;28;20204;-72
2024/02/11 04:31:10;;;;;;;97.03;78.23;;;;;11.50;94267.00;;;;5076529;28;20250;-73
2024/02/11 04:34:00;;;;;;;87.60;76.80;;;;;11.60;94264.00;;;;5064703;28;20210;-71
2024/02/11 04:36:49;;;;;;;86.70;74.67;;;;;11.70;94254.00;;;;5075403;28;20212;-72
2024/02/11 04:39:40;;;;;;;94.57;79.60;;;;;11.70;94262.00;;;;5075945;28;20196;-71
2024/02/11 04:42:30;;;;;;;92.13;75.43;;;;;11.70;94261.00;;;;5075736;28;20219;-72
2024/02/11 04:45:20;;;;;;;100.33;80.83;;;;;11.70;94263.00;;;;5086911;28;20226;-73
2024/02/11 04:48:10;;;;;;;107.73;85.20;;;;;11.80;94258.00;;;;5084831;28;20204;-73
2024/02/11 04:50:59;;;;;;;105.23;80.97;;;;;11.80;94254.00;;;;5075694;28;20305;-73
2024/02/11 04:53:48;;;;;;;110.07;82.90;;;;;11.60;94251.00;;;;5073040;28;20693;-72
2024/02/11 04:56:39;;;;;;;106.93;83.30;;;;;11.70;94249.00;;;;5083715;28;20629;-72
2024/02/11 04:59:28;;;;;;;103.03;82.10;;;;;11.70;94251.00;;;;5088356;28;20195;-72
2024/02/11 05:02:18;;;;;;;116.97;86.53;;;;;11.60;94249.00;;;;5084004;28;20242;-72
2024/02/11 05:05:08;;;;;;;113.90;85.00;;;;;11.60;94252.00;;;;5086700;28;20207;-72
2024/02/11 05:07:57;;;;;;;112.77;84.33;;;;;11.60;94249.00;;;;5086611;28;20293;-73
2024/02/11 05:10:51;;;;;;;105.87;81.67;;;;;11.60;94250.00;;;;5092185;28;20309;-72
2024/02/11 05:13:43;;;;;;;124.67;89.03;;;;;11.60;94248.00;;;;5089409;28;20790;-72
2024/02/11 05:16:34;;;;;;;116.53;86.83;;;;;11.50;94250.00;;;;5084527;28;20212;-71
2024/02/11 05:19:25;;;;;;;121.20;89.77;;;;;11.60;94243.00;;;;5093925;28;20195;-71
2024/02/11 05:22:14;;;;;;;113.63;87.33;;;;;11.50;94246.00;;;;5090859;28;20634;-73
2024/02/11 05:25:04;;;;;;;87.50;74.50;;;;;11.30;94246.00;;;;5086462;28;20587;-71
2024/02/11 05:27:57;;;;;;;98.50;79.40;;;;;11.40;94243.00;;;;5091593;28;20199;-72
2024/02/11 05:30:52;;;;;;;98.10;80.53;;;;;11.30;94239.00;;;;5085600;28;20609;-72
2024/02/11 05:33:41;;;;;;;99.23;79.70;;;;;11.40;94239.00;;;;5086695;28;20200;-71
2024/02/11 05:36:30;;;;;;;111.60;84.53;;;;;11.30;94239.00;;;;5089553;28;20206;-72
2024/02/11 05:39:19;;;;;;;123.73;89.80;;;;;11.40;94234.00;;;;5091525;28;20206;-71
2024/02/11 05:42:11;;;;;;;122.93;90.43;;;;;11.50;94239.00;;;;5085599;28;20238;-72
2024/02/11 05:45:00;;;;;;;119.47;85.87;;;;;11.30;94248.00;;;;5089022;28;20201;-72
2024/02/11 05:47:50;;;;;;;116.97;85.27;;;;;11.40;94246.00;;;;5092211;28;20210;-72
2024/02/11 05:50:40;;;;;;;116.67;83.60;;;;;11.60;94243.00;;;;5087794;28;20276;-71
2024/02/11 05:53:29;;;;;;;128.30;89.37;;;;;11.40;94247.00;;;;5088151;28;20610;-72
2024/02/11 05:56:19;;;;;;;130.43;91.30;;;;;11.50;94251.00;;;;5086814;28;20203;-72
2024/02/11 05:59:08;;;;;;;103.20;79.73;;;;;11.60;94255.00;;;;5088318;28;20781;-71
2024/02/11 06:02:00;;;;;;;105.50;82.53;;;;;11.30;94254.00;;;;5084167;28;20235;-71
2024/02/11 06:04:52;;;;;;;111.83;82.90;;;;;11.30;94257.00;;;;5088361;28;20222;-73
2024/02/11 06:07:43;;;;;;;109.37;80.33;;;;;11.50;94258.00;;;;5089889;28;20793;-72
2024/02/11 06:10:33;;;;;;;104.97;79.77;;;;;11.40;94253.00;;;;5084662;28;20586;-72
2024/02/11 06:13:23;;;;;;;117.87;88.63;;;;;11.50;94261.00;;;;5090059;28;20593;-72
2024/02/11 06:16:12;;;;;;;107.40;83.20;;;;;11.10;94259.00;;;;5088813;28;20688;-72
2024/02/11 06:19:04;;;;;;;110.50;80.83;;;;;11.10;94261.00;;;;5087394;28;20751;-72
2024/02/11 06:21:55;;;;;;;109.47;82.73;;;;;11.40;94257.00;;;;5086902;28;20211;-71
2024/02/11 06:24:44;;;;;;;104.50;79.83;;;;;11.50;94269.00;;;;5086391;28;20199;-72
2024/02/11 06:27:33;;;;;;;110.77;81.70;;;;;11.50;94264.00;;;;5090706;28;20201;-71
2024/02/11 06:30:24;;;;;;;122.40;86.40;;;;;11.40;94270.00;;;;5088819;28;20223;-72
2024/02/11 06:33:13;;;;;;;124.00;90.10;;;;;11.50;94275.00;;;;5087123;28;20203;-72
2024/02/11 06:36:02;;;;;;;118.23;84.73;;;;;11.20;94277.00;;;;5083368;28;20687;-71
2024/02/11 06:38:58;;;;;;;126.57;90.50;;;;;11.00;94277.00;;;;5085525;28;20624;-72
2024/02/11 06:41:47;;;;;;;121.43;87.87;;;;;11.20;94286.00;;;;5082305;28;20935;-71
2024/02/11 06:44:38;;;;;;;118.60;89.07;;;;;11.30;94285.00;;;;5087455;28;20577;-71
2024/02/11 06:47:28;;;;;;;103.50;78.67;;;;;11.50;94288.00;;;;5085564;28;20199;-71
2024/02/11 06:50:18;;;;;;;117.07;87.43;;;;;11.40;94288.00;;;;5084230;28;20234;-71
2024/02/11 06:53:08;;;;;;;119.13;84.47;;;;;11.30;94288.00;;;;5086004;28;20218;-71
2024/02/11 06:55:59;;;;;;;121.30;85.43;;;;;11.40;94288.00;;;;5083191;28;20199;-71
2024/02/11 06:58:48;;;;;;;140.20;93.03;;;;;11.50;94293.00;;;;5089219;28;20239;-71
2024/02/11 07:01:39;;;;;;;130.27;87.73;;;;;11.60;94298.00;;;;5092174;28;20234;-71
2024/02/11 07:04:32;;;;;;;135.10;86.03;;;;;11.60;94302.00;;;;5106869;27;20607;-71
2024/02/11 07:07:24;;;;;;;150.63;94.87;;;;;11.60;94312.00;;;;5110797;27;20211;-71
2024/02/11 07:10:14;;;;;;;162.53;94.13;;;;;11.60;94311.00;;;;5106334;27;20230;-71
2024/02/11 07:13:05;;;;;;;159.27;91.17;;;;;11.70;94312.00;;;;5107357;28;20218;-71
2024/02/11 07:15:56;;;;;;;186.30;107.97;;;;;11.70;94310.00;;;;5108968;27;20213;-71
2024/02/11 07:18:46;;;;;;;159.40;95.00;;;;;11.50;94309.00;;;;5109169;27;20191;-70
2024/02/11 07:21:36;;;;;;;157.80;93.23;;;;;11.50;94309.00;;;;5103738;28;20211;-71
2024/02/11 07:24:26;;;;;;;168.77;99.33;;;;;11.60;94310.00;;;;5106437;28;20206;-71
2024/02/11 07:27:16;;;;;;;167.07;97.43;;;;;11.60;94316.00;;;;5101390;28;20202;-71
2024/02/11 07:30:11;;;;;;;155.17;91.77;;;;;11.50;94314.00;;;;5098527;28;20218;-71
2024/02/11 07:33:00;;;;;;;157.20;93.90;;;;;11.60;94308.00;;;;5086651;28;20711;-71
2024/02/11 07:35:49;;;;;;;161.63;97.17;;;;;11.70;94313.00;;;;5106670;28;20202;-71
2024/02/11 07:38:39;;;;;;;170.20;95.90;;;;;11.70;94315.00;;;;5106384;28;20697;-71
2024/02/11 07:41:28;;;;;;;173.23;95.60;;;;;11.80;94318.00;;;;5105683;27;20599;-71
2024/02/11 07:44:17;;;;;;;331.73;201.87;;;;;11.70;94313.00;;;;5068918;27;20214;-70
2024/02/11 07:47:09;;;;;;;197.50;103.23;;;;;11.70;94320.00;;;;5064216;27;20243;-69
2024/02/11 07:50:00;;;;;;;194.33;98.70;;;;;11.80;94320.00;;;;5103007;28;20206;-69
2024/02/11 07:52:49;;;;;;;197.87;99.70;;;;;11.70;94319.00;;;;5110058;28;20219;-69
2024/02/11 07:55:38;;;;;;;205.33;101.47;;;;;11.60;94321.00;;;;5105714;28;20198;-71
2024/02/11 07:58:27;;;;;;;213.80;101.27;;;;;11.70;94318.00;;;;5107588;28;20619;-69
2024/02/11 08:01:17;;;;;;;227.07;111.83;;;;;11.60;94313.00;;;;5103898;28;20702;-69
2024/02/11 08:04:08;;;;;;;225.20;105.77;;;;;11.60;94314.00;;;;5104343;28;20205;-69
2024/02/11 08:06:58;;;;;;;323.63;172.97;;;;;11.40;94320.00;;;;5041880;28;20213;-73
2024/02/11 08:09:47;;;;;;;320.80;179.50;;;;;11.50;94310.00;;;;5045123;28;20324;-69
2024/02/11 08:12:37;;;;;;;357.47;191.77;;;;;11.60;94316.00;;;;5053728;27;20739;-72
2024/02/11 08:15:26;;;;;;;355.57;191.97;;;;;11.60;94313.00;;;;5046660;28;20559;-69
2024/02/11 08:18:17;;;;;;;366.33;201.47;;;;;11.60;94315.00;;;;5049539;28;20231;-69
2024/02/11 08:21:09;;;;;;;363.90;204.37;;;;;11.60;94316.00;;;;5042464;28;20237;-69
2024/02/11 08:23:58;;;;;;;314.70;160.53;;;;;11.70;94319.00;;;;5035331;28;20298;-71
2024/02/11 08:26:48;;;;;;;378.80;208.77;;;;;11.70;94328.00;;;;5036421;28;20254;-69
2024/02/11 08:29:37;;;;;;;351.23;149.33;;;;;11.70;94332.00;;;;5047249;28;20363;-71
2024/02/11 08:32:27;;;;;;;472.97;204.47;;;;;11.60;94322.00;;;;5017256;28;20252;-70
2024/02/11 08:35:18;;;;;;;441.20;188.13;;;;;11.50;94321.00;;;;5020836;28;20214;-71
2024/02/11 08:38:10;;;;;;;480.20;208.57;;;;;11.60;94326.00;;;;5040966;28;20210;-69
2024/02/11 08:40:59;;;;;;;400.57;142.37;;;;;11.90;94326.00;;;;5032519;27;20634;-70
2024/02/11 08:43:49;;;;;;;401.13;148.43;;;;;12.10;94325.00;;;;5040273;27;20214;-69
2024/02/11 08:46:38;;;;;;;417.00;162.07;;;;;12.20;94324.00;;;;5057942;27;20202;-69
2024/02/11 08:49:28;;;;;;;319.13;141.23;;;;;12.20;94333.00;;;;5070784;27;20985;-70
2024/02/11 08:52:18;;;;;;;397.63;192.93;;;;;12.00;94332.00;;;;5057046;27;20611;-70
2024/02/11 08:55:09;;;;;;;352.10;107.07;;;;;12.20;94326.00;;;;5102781;27;20206;-70
2024/02/11 08:57:59;;;;;;;340.20;98.87;;;;;12.30;94329.00;;;;5113060;27;20608;-69
2024/02/11 09:00:48;;;;;;;345.67;101.53;;;;;12.30;94334.00;;;;5064689;27;20591;-69
2024/02/11 09:03:38;;;;;;;357.00;108.67;;;;;12.30;94331.00;;;;5097489;22;20245;-70
2024/02/11 09:06:28;;;;;;;353.93;106.23;;;;;12.40;94336.00;;;;5121180;27;20253;-69
2024/02/11 09:09:25;;;;;;;220.93;116.33;;;;;12.40;94349.00;;;;5113904;27;20263;-71
2024/02/11 09:12:16;;;;;;;375.13;211.60;;;;;12.50;94351.00;;;;5098410;27;21490;-71
2024/02/11 09:15:06;;;;;;;313.03;183.30;;;;;12.60;94343.00;;;;5066149;27;20692;-70
2024/02/11 09:17:56;;;;;;;317.43;183.10;;;;;12.50;94343.00;;;;5075999;27;21577;-70
2024/02/11 09:20:46;;;;;;;329.87;198.97;;;;;12.50;94351.00;;;;5065763;27;20210;-71
2024/02/11 09:23:35;;;;;;;288.80;172.27;;;;;12.60;94353.00;;;;5073161;27;21679;-70
2024/02/11 09:26:24;;;;;;;309.20;196.13;;;;;12.60;94361.00;;;;5069195;27;20202;-70
2024/02/11 09:29:15;;;;;;;355.17;221.77;;;;;12.70;94351.00;;;;5059710;27;20250;-70
2024/02/11 09:32:05;;;;;;;310.47;189.33;;;;;12.70;94365.00;;;;5072121;27;20216;-70
2024/02/11 09:34:55;;;;;;;349.53;216.23;;;;;12.70;94374.00;;;;5071150;27;20218;-70
2024/02/11 09:37:44;;;;;;;319.13;200.70;;;;;12.70;94376.00;;;;5068597;27;20246;-70
2024/02/11 09:40:35;;;;;;;345.70;209.67;;;;;12.80;94384.00;;;;5066351;27;20230;-69
2024/02/11 09:43:25;;;;;;;358.43;222.20;;;;;12.80;94387.00;;;;5069829;27;20221;-69
2024/02/11 09:46:17;;;;;;;384.07;230.70;;;;;12.90;94384.00;;;;5057966;27;20194;-70
2024/02/11 09:49:11;;;;;;;288.17;164.97;;;;;13.00;94386.00;;;;5079510;27;20331;-70
2024/02/11 09:52:00;;;;;;;198.27;110.53;;;;;12.90;94391.00;;;;5114087;27;20218;-70
2024/02/11 09:54:52;;;;;;;198.77;111.53;;;;;12.90;94390.00;;;;5122002;27;20272;-70
2024/02/11 09:57:42;;;;;;;211.90;115.63;;;;;13.10;94390.00;;;;5123665;27;20198;-70
2024/02/11 10:00:31;;;;;;;265.80;155.93;;;;;13.10;94388.00;;;;5121839;27;20201;-70
2024/02/11 10:03:24;;;;;;;230.80;123.03;;;;;13.10;94393.00;;;;5121917;27;20222;-70
2024/02/11 10:06:14;;;;;;;225.97;122.07;;;;;13.20;94391.00;;;;5123574;27;20228;-69
2024/02/11 10:09:05;;;;;;;223.13;121.13;;;;;13.10;94391.00;;;;5121360;27;20271;-70
2024/02/11 10:11:55;;;;;;;206.20;112.17;;;;;13.00;94395.00;;;;5122903;27;20241;-70
2024/02/11 10:14:57;;;;;;;208.73;113.63;;;;;13.00;94402.00;;;;5126405;27;20799;-70
2024/02/11 10:17:47;;;;;;;190.77;113.47;;;;;12.80;94398.00;;;;5125246;27;20209;-69
2024/02/11 10:20:38;;;;;;;197.77;109.50;;;;;12.80;94396.00;;;;5122469;27;20202;-70
2024/02/11 10:23:28;;;;;;;234.77;128.83;;;;;12.70;94402.00;;;;5122585;27;20223;-69
2024/02/11 10:26:17;;;;;;;208.47;117.60;;;;;12.70;94404.00;;;;5122857;27;20210;-70
2024/02/11 10:29:07;;;;;;;223.63;121.13;;;;;12.80;94397.00;;;;5121776;27;20202;-69
2024/02/11 10:31:56;;;;;;;178.80;102.50;;;;;13.00;94406.00;;;;5124013;27;20221;-70
2024/02/11 10:34:46;;;;;;;182.50;111.63;;;;;13.20;94404.00;;;;5126105;27;20682;-69
2024/02/11 10:37:41;;;;;;;171.17;105.60;;;;;13.10;94409.00;;;;5112046;27;20244;-70
2024/02/11 10:40:31;;;;;;;181.13;108.73;;;;;13.00;94405.00;;;;5127430;27;20202;-70
2024/02/11 10:43:24;;;;;;;212.67;122.10;;;;;13.10;94401.00;;;;5121916;27;20218;-70
2024/02/11 10:46:14;;;;;;;200.63;115.67;;;;;13.10;94401.00;;;;5121835;27;20206;-69
2024/02/11 10:49:03;;;;;;;186.93;107.50;;;;;13.10;94407.00;;;;5117091;27;20212;-70
2024/02/11 10:51:55;;;;;;;333.90;198.87;;;;;13.20;94406.00;;;;5063694;27;20229;-70
2024/02/11 10:54:47;;;;;;;232.80;133.53;;;;;13.10;94406.00;;;;5119320;27;20783;-70
2024/02/11 10:57:41;;;;;;;193.10;108.87;;;;;13.10;94408.00;;;;5115493;27;20202;-69
2024/02/11 11:00:31;;;;;;;182.50;107.63;;;;;13.10;94402.00;;;;5129920;27;20207;-69
2024/02/11 11:03:26;;;;;;;204.97;117.57;;;;;12.90;94412.00;;;;5117315;27;20235;-70
2024/02/11 11:06:17;;;;;;;189.07;118.33;;;;;12.80;94407.00;;;;5119439;27;20598;-70
2024/02/11 11:09:09;;;;;;;179.40;108.63;;;;;13.10;94410.00;;;;5121438;27;20244;-69
2024/02/11 11:12:08;;;;;;;188.07;110.53;;;;;13.20;94413.00;;;;5123003;27;20240;-70
2024/02/11 11:14:58;;;;;;;188.00;110.50;;;;;13.20;94407.00;;;;5123072;27;20587;-69
2024/02/11 11:17:48;;;;;;;197.73;113.00;;;;;13.20;94408.00;;;;5128730;27;20202;-70
2024/02/11 11:20:37;;;;;;;362.93;209.47;;;;;13.30;94413.00;;;;5071364;27;20293;-70
2024/02/11 11:23:27;;;;;;;394.80;220.60;;;;;13.30;94404.00;;;;5072899;27;20217;-70
2024/02/11 11:26:21;;;;;;;203.73;116.77;;;;;13.30;94412.00;;;;5101713;27;20761;-70
2024/02/11 11:29:16;;;;;;;291.43;178.27;;;;;13.30;94415.00;;;;5070667;27;20302;-70
2024/02/11 11:32:10;;;;;;;295.87;182.83;;;;;13.40;94413.00;;;;5069350;27;20232;-70
2024/02/11 11:35:00;;;;;;;290.90;179.87;;;;;13.40;94406.00;;;;5068539;27;21681;-70
2024/02/11 11:37:49;;;;;;;321.10;203.27;;;;;13.40;94414.00;;;;5070573;27;20580;-70
2024/02/11 11:40:40;;;;;;;355.30;222.83;;;;;13.40;94408.00;;;;5066632;27;20261;-70
2024/02/11 11:43:30;;;;;;;341.30;219.07;;;;;13.30;94420.00;;;;5062256;27;20217;-70
2024/02/11 11:46:20;;;;;;;333.33;203.80;;;;;13.20;94421.00;;;;5067894;27;20204;-70
2024/02/11 11:49:10;;;;;;;296.37;183.57;;;;;13.10;94418.00;;;;5072411;27;20227;-70
2024/02/11 11:52:00;;;;;;;293.53;178.00;;;;;12.90;94417.00;;;;5071193;27;20216;-69
2024/02/11 11:54:49;;;;;;;274.57;172.43;;;;;13.10;94423.00;;;;5080026;27;20226;-70
2024/02/11 11:57:39;;;;;;;287.80;179.00;;;;;13.10;94425.00;;;;5078515;27;20202;-69
2024/02/11 12:00:28;;;;;;;329.23;212.13;;;;;13.20;94420.00;;;;5069163;27;20205;-70
2024/02/11 12:03:19;;;;;;;352.17;225.67;;;;;13.40;94429.00;;;;5064103;27;20722;-70
2024/02/11 12:06:09;;;;;;;304.93;199.67;;;;;13.40;94422.00;;;;5067022;27;20300;-69
2024/02/11 12:08:59;;;;;;;331.83;212.67;;;;;13.50;94426.00;;;;5068029;27;20279;-69
2024/02/11 12:11:48;;;;;;;308.03;207.57;;;;;13.60;94432.00;;;;5063986;27;20667;-70
2024/02/11 12:14:38;;;;;;;303.87;202.40;;;;;13.70;94434.00;;;;5063318;27;20248;-69
2024/02/11 12:17:27;;;;;;;301.17;197.23;;;;;13.50;94439.00;;;;5065820;27;20205;-70
2024/02/11 12:20:20;;;;;;;330.73;212.07;;;;;13.50;94439.00;;;;5070128;27;20202;-70
2024/02/11 12:23:09;;;;;;;326.73;217.10;;;;;13.60;94438.00;;;;5069302;27;20649;-70
2024/02/11 12:26:02;;;;;;;293.43;187.73;;;;;13.60;94441.00;;;;5067375;27;20909;-70
2024/02/11 12:28:52;;;;;;;334.00;218.13;;;;;13.60;94446.00;;;;5069943;27;20232;-70
2024/02/11 12:31:42;;;;;;;173.47;115.03;;;;;13.80;94446.00;;;;5086574;27;20195;-71
2024/02/11 12:34:32;;;;;;;172.47;114.07;;;;;13.70;94450.00;;;;5124704;27;22412;-70
2024/02/11 12:37:23;;;;;;;188.53;122.93;;;;;13.80;94451.00;;;;5128059;27;20685;-71
2024/02/11 12:40:18;;;;;;;171.67;115.87;;;;;13.70;94451.00;;;;5125822;27;20205;-71
2024/02/11 12:43:09;;;;;;;174.97;115.10;;;;;13.20;94444.00;;;;5129452;27;20769;-71
2024/02/11 12:45:58;;;;;;;171.10;111.10;;;;;13.20;94457.00;;;;5121825;27;20213;-71
2024/02/11 12:48:48;;;;;;;189.17;120.90;;;;;13.50;94458.00;;;;5113257;27;20713;-70
2024/02/11 12:51:37;;;;;;;172.33;111.90;;;;;13.50;94459.00;;;;5127520;27;20205;-70
2024/02/11 12:54:29;;;;;;;181.70;116.10;;;;;13.30;94463.00;;;;5118547;27;20227;-70
2024/02/11 12:57:18;;;;;;;169.20;115.07;;;;;13.30;94466.00;;;;5125317;27;20206;-70
2024/02/11 13:00:09;;;;;;;161.13;107.83;;;;;12.80;94462.00;;;;5122729;27;20206;-70
2024/02/11 13:02:58;;;;;;;167.93;108.67;;;;;12.60;94465.00;;;;5123985;27;20441;-70
2024/02/11 13:05:47;;;;;;;190.30;123.70;;;;;12.80;94464.00;;;;5141038;27;20192;-70
2024/02/11 13:08:37;;;;;;;163.83;106.57;;;;;13.10;94466.00;;;;5147952;27;20575;-70
2024/02/11 13:11:28;;;;;;;183.57;114.90;;;;;12.90;94465.00;;;;5144276;27;20273;-70
2024/02/11 13:14:17;;;;;;;203.20;126.70;;;;;12.90;94470.00;;;;5141418;27;20586;-69
2024/02/11 13:17:06;;;;;;;303.53;196.57;;;;;12.90;94468.00;;;;5128000;27;20311;-70
2024/02/11 13:19:56;;;;;;;184.63;107.50;;;;;13.20;94479.00;;;;5143175;27;20276;-70
2024/02/11 13:22:49;;;;;;;341.43;216.67;;;;;13.40;94484.00;;;;5131407;27;20212;-70
2024/02/11 13:25:38;;;;;;;208.63;119.33;;;;;13.40;94479.00;;;;5102993;27;20196;-69
2024/02/11 13:28:29;;;;;;;212.87;119.83;;;;;13.50;94487.00;;;;5147821;27;20205;-70
2024/02/11 13:31:18;;;;;;;214.27;119.60;;;;;13.50;94497.00;;;;5147734;27;20200;-69
2024/02/11 13:34:07;;;;;;;304.03;182.77;;;;;13.50;94502.00;;;;5079658;27;20706;-70
2024/02/11 13:36:56;;;;;;;383.97;228.23;;;;;13.50;94497.00;;;;5086553;27;20209;-69